createdAt,value
2023-04-13T00:03:25.747Z,39
2023-04-13T00:09:18.351Z,38.9
2023-04-13T00:15:10.893Z,38.9
2023-04-13T00:21:02.482Z,38.9
2023-04-13T00:26:53.797Z,38.8
2023-04-13T00:32:45.803Z,38.8
2023-04-13T00:38:37.181Z,38.7
2023-04-13T00:44:27.990Z,38.6
2023-04-13T00:50:20.426Z,38.6
2023-04-13T00:56:12.238Z,38.6
2023-04-13T01:02:03.546Z,38.5
2023-04-13T01:07:57.086Z,38.4
2023-04-13T01:13:31.595Z,38.4
2023-04-13T01:20:18.391Z,38.4
2023-04-13T01:26:10.141Z,38.3
2023-04-13T01:32:01.639Z,38.3
2023-04-13T01:37:38.175Z,38.2
2023-04-13T01:43:29.614Z,38.2
2023-04-13T01:49:21.134Z,38.1
2023-04-13T01:54:56.918Z,38.1
2023-04-13T02:00:49.026Z,38
2023-04-13T02:06:42.855Z,37.9
2023-04-13T02:12:33.597Z,37.9
2023-04-13T02:18:25.867Z,37.8
2023-04-13T02:24:16.735Z,37.8
2023-04-13T02:30:08.333Z,37.8
2023-04-13T02:36:00.658Z,37.8
2023-04-13T02:41:51.504Z,37.8
2023-04-13T02:47:43.126Z,37.7
2023-04-13T02:53:34.502Z,37.7
2023-04-13T02:59:25.393Z,37.6
2023-04-13T03:05:18.072Z,37.6
2023-04-13T03:11:11.318Z,37.6
2023-04-13T03:16:47.787Z,37.4
2023-04-13T03:22:38.884Z,37.4
2023-04-13T03:28:31.741Z,37.4
2023-04-13T03:34:23.333Z,37.4
2023-04-13T03:40:15.716Z,37.3
2023-04-13T03:46:08.191Z,37.3
2023-04-13T03:51:44.415Z,37.3
2023-04-13T03:57:35.967Z,37.1
2023-04-13T04:03:28.720Z,37.1
2023-04-13T04:09:20.998Z,37.1
2023-04-13T04:15:15.858Z,37
2023-04-13T04:21:10.651Z,37
2023-04-13T04:27:02.030Z,36.9
2023-04-13T04:32:53.443Z,36.8
2023-04-13T04:38:46.795Z,36.7
2023-04-13T04:44:22.604Z,36.6
2023-04-13T04:49:58.775Z,36.5
2023-04-13T04:55:50.657Z,36.4
2023-04-13T05:01:42.376Z,36.4
2023-04-13T05:07:19.467Z,36.4
2023-04-13T05:13:11.618Z,36.3
2023-04-13T05:19:03.055Z,36.3
2023-04-13T05:24:57.173Z,36.3
2023-04-13T05:30:51.823Z,36.2
2023-04-13T05:36:42.748Z,36.2
2023-04-13T05:42:34.093Z,36.1
2023-04-13T05:48:27.610Z,36.1
2023-04-13T05:54:18.880Z,26.5
2023-04-13T06:00:10.004Z,33.4
2023-04-13T06:06:06.849Z,34.4
2023-04-13T06:11:58.219Z,31.4
2023-04-13T06:17:50.681Z,37.3
2023-04-13T06:23:43.634Z,40.4
2023-04-13T06:29:35.532Z,42
2023-04-13T06:35:27.393Z,43.3
2023-04-13T06:41:22.846Z,43.2
2023-04-13T06:47:09.521Z,42.9
2023-04-13T06:53:00.946Z,43.1
2023-04-13T06:58:52.554Z,43.9
2023-04-13T07:05:02.570Z,44.7
2023-04-13T07:10:53.718Z,45.4
2023-04-13T07:16:46.591Z,46.3
2023-04-13T07:22:22.555Z,46.9
2023-04-13T07:28:12.713Z,47.7
2023-04-13T07:34:09.804Z,48.5
2023-04-13T07:40:04.004Z,49.2
2023-04-13T07:45:55.324Z,50
2023-04-13T07:51:47.944Z,50.6
2023-04-13T07:57:39.027Z,51.4
2023-04-13T08:03:30.748Z,52.3
2023-04-13T08:09:27.251Z,53.1
2023-04-13T08:15:03.307Z,53.9
2023-04-13T08:20:57.836Z,54.6
2023-04-13T08:26:52.086Z,55.4
2023-04-13T08:32:45.020Z,56.2
2023-04-13T08:38:36.864Z,56.9
2023-04-13T08:44:30.833Z,57.7
2023-04-13T08:50:31.944Z,58.4
2023-04-13T08:56:07.246Z,58.9
2023-04-13T09:02:07.279Z,59.6
2023-04-13T09:08:15.385Z,60.3
2023-04-13T09:13:51.105Z,60.9
2023-04-13T09:19:43.351Z,61.1
2023-04-13T09:33:54.816Z,48.4
2023-04-13T09:39:24.283Z,49.6
2023-04-13T09:44:45.205Z,51.1
2023-04-13T09:50:06.614Z,52.4
2023-04-13T09:55:43.860Z,53.8
2023-04-13T10:01:19.820Z,55.2
2023-04-13T10:07:06.401Z,56.2
2023-04-13T10:13:01.400Z,57.3
2023-04-13T10:19:02.764Z,58.2
2023-04-13T10:24:59.090Z,57.8
2023-04-13T10:36:48.589Z,59.3
2023-04-13T10:42:51.109Z,60.3
2023-04-13T10:48:35.826Z,60.5
2023-04-13T10:53:59.377Z,61.1
2023-04-13T10:59:49.093Z,62
2023-04-13T11:05:44.886Z,62.4
2023-04-13T11:11:31.239Z,62.6
2023-04-13T11:17:06.145Z,62.9
2023-04-13T11:22:47.672Z,63
2023-04-13T11:28:23.106Z,63.3
2023-04-13T11:33:43.441Z,63.4
2023-04-13T11:39:20.131Z,63.6
2023-04-13T11:45:10.226Z,63.4
2023-04-13T11:51:03.950Z,63.3
2023-04-13T11:57:16.234Z,61.9
2023-04-13T12:03:47.518Z,61.8
2023-04-13T12:25:21.040Z,62.1
2023-04-13T12:31:33.627Z,62.8
2023-04-13T12:37:25.280Z,63
2023-04-13T12:43:18.490Z,62.8
2023-04-13T12:49:09.970Z,62.4
2023-04-13T12:55:02.922Z,62.4
2023-04-13T13:00:55.019Z,62.3
2023-04-13T13:06:55.040Z,61.9
2023-04-13T13:12:58.358Z,61.6
2023-04-13T13:19:05.809Z,61.3
2023-04-13T13:24:56.653Z,60.8
2023-04-13T13:32:10.433Z,59.2
2023-04-13T13:38:02.338Z,57.6
2023-04-13T13:43:40.403Z,56.8
2023-04-13T13:49:17.744Z,56.1
2023-04-13T13:55:26.548Z,55.3
2023-04-13T14:06:55.177Z,49.6
2023-04-13T14:18:44.562Z,49.7
2023-04-13T14:24:36.843Z,48
2023-04-13T14:30:28.392Z,46.9
2023-04-13T14:36:18.775Z,46.2
2023-04-13T14:42:13.365Z,45.6
2023-04-13T14:48:05.886Z,45.1
2023-04-13T14:53:57.526Z,44.7
2023-04-13T14:59:49.986Z,44.4
2023-04-13T15:05:44.495Z,44.1
2023-04-13T15:11:38.125Z,43.9
2023-04-13T15:17:32.641Z,43.7
2023-04-13T15:23:25.676Z,43.5
2023-04-13T15:29:17.735Z,43.3
2023-04-13T15:35:09.941Z,43.1
2023-04-13T15:41:02.255Z,42.8
2023-04-13T15:46:54.265Z,42.6
2023-04-13T15:52:46.348Z,42.4
2023-04-13T15:58:37.860Z,42.3
2023-04-13T16:04:31.516Z,42.1
2023-04-13T16:10:26.287Z,41.9
2023-04-13T16:16:32.895Z,41.8
2023-04-13T16:22:25.394Z,41.6
2023-04-13T16:28:17.537Z,41.5
2023-04-13T16:34:24.729Z,41.3
2023-04-13T16:40:18.724Z,41.2
2023-04-13T16:46:10.685Z,41.1
2023-04-13T16:51:47.925Z,40.9
2023-04-13T16:57:40.156Z,40.8
2023-04-13T17:03:51.476Z,40.7
2023-04-13T17:09:43.516Z,40.6
2023-04-13T17:15:19.853Z,40.4
2023-04-13T17:20:57.453Z,40.4
2023-04-13T17:26:49.487Z,40.3
2023-04-13T17:32:41.655Z,40.3
2023-04-13T17:38:37.253Z,40.2
2023-04-13T17:44:29.761Z,40.1
2023-04-13T17:50:22.270Z,40
2023-04-13T17:56:14.659Z,39.9
2023-04-13T18:02:09.322Z,39.9
2023-04-13T18:07:48.753Z,39.8
2023-04-13T18:13:42.297Z,39.8
2023-04-13T18:19:04.130Z,39.7
2023-04-13T18:24:41.831Z,39.6
2023-04-13T18:30:03.376Z,39.6
2023-04-13T18:35:41.979Z,39.5
2023-04-13T18:41:33.528Z,39.5
2023-04-13T18:46:54.978Z,39.4
2023-04-13T18:52:31.302Z,39.4
2023-04-13T18:58:07.969Z,39.3
2023-04-13T19:04:03.142Z,39.3
2023-04-13T19:09:42.515Z,39.1
2023-04-13T19:15:34.247Z,39
2023-04-13T19:21:26.909Z,38.9
2023-04-13T19:27:20.911Z,38.9
2023-04-13T19:32:57.932Z,38.8
2023-04-13T19:38:51.241Z,38.8
2023-04-13T19:44:44.044Z,38.8
2023-04-13T19:50:36.453Z,38.7
2023-04-13T19:56:29.098Z,38.6
2023-04-13T20:02:21.997Z,38.6
2023-04-13T20:08:14.984Z,38.6
2023-04-13T20:14:07.084Z,38.5
2023-04-13T20:20:00.198Z,38.5
2023-04-13T20:25:52.442Z,38.4
2023-04-13T20:31:47.035Z,38.4
2023-04-13T20:37:39.313Z,38.4
2023-04-13T20:43:16.186Z,38.3
2023-04-13T20:49:54.868Z,38.3
2023-04-13T20:55:46.249Z,38.2
2023-04-13T21:01:38.533Z,38.2
2023-04-13T21:07:31.922Z,38.1
2023-04-13T21:13:24.274Z,38.1
2023-04-13T21:19:17.274Z,38.1
2023-04-13T21:25:11.995Z,38
2023-04-13T21:31:03.421Z,38
2023-04-13T21:42:25.088Z,37.9
2023-04-13T21:48:24.569Z,37.9
2023-04-13T21:54:15.796Z,37.8
2023-04-13T22:00:10.460Z,37.8
2023-04-13T22:06:04.729Z,37.8
2023-04-13T22:12:09.748Z,37.8
2023-04-13T22:18:03.971Z,37.7
2023-04-13T22:23:55.540Z,37.6
2023-04-13T22:29:32.244Z,37.6
2023-04-13T22:35:24.749Z,37.6
2023-04-13T22:41:16.630Z,37.5
2023-04-13T22:47:07.644Z,37.5
2023-04-13T22:52:59.279Z,37.4
2023-04-13T22:58:51.258Z,37.4
2023-04-13T23:04:32.409Z,37.4
2023-04-13T23:10:09.479Z,37.4
2023-04-13T23:16:01.169Z,37.3
2023-04-13T23:21:38.110Z,37.3
2023-04-13T23:27:30.580Z,37.3
2023-04-13T23:33:22.419Z,37.2
2023-04-13T23:39:14.291Z,37.2
2023-04-13T23:45:05.192Z,37.1
2023-04-13T23:50:57.716Z,37.1
2023-04-13T23:56:49.087Z,37.1
